Yalesville, Connecticut
Current Conditions -  °F | °C
As of 8:53 PM on Wednesday 17 Dec 2014 (Local Time) from KMMK Reporting Station
Broken Clouds Broken Clouds  
Wind Chill: 37°   Ceiling: 9500
Heat Index: 41°   Visibility: 10mi
Dew Point: 34°   Wind: 6mph
Humidity: 76%   Direction: 290°WNW
Pressure: 29.84"   Gusts: NA
Location:  41.4596°N, 72.818°W
Report Text: KMMK 180153Z AUTO 29005KT 10SM FEW080 BKN095 05/01 A2984 RMK AO2 RAB18E34 SLP104 P0000 T00500011 TSNO
Loading
Personal Weather Stations






























Interactive Weather Map New forecast layout! Learn more

10-Day Weather Forecast

Advertisements
Track Severe Weather on mobile